createdAt,value
2019-04-20T00:00:01.735Z,1030.59
2019-04-20T00:00:59.911Z,1030.59
2019-04-20T00:02:08.230Z,1030.60
2019-04-20T00:03:00.050Z,1030.57
2019-04-20T00:03:58.949Z,1030.59
2019-04-20T00:04:59.115Z,1030.59
2019-04-20T00:05:59.316Z,1030.58
2019-04-20T00:06:59.208Z,1030.58
2019-04-20T00:08:01.199Z,1030.59
2019-04-20T00:09:06.158Z,1030.58
2019-04-20T00:10:07.608Z,1030.57
2019-04-20T00:11:07.319Z,1030.58
2019-04-20T00:12:08.246Z,1030.56
2019-04-20T00:13:09.024Z,1030.56
2019-04-20T00:14:06.681Z,1030.51
2019-04-20T00:14:58.669Z,1030.50
2019-04-20T00:15:58.133Z,1030.53
2019-04-20T00:16:58.831Z,1030.49
2019-04-20T00:18:01.619Z,1030.52
2019-04-20T00:19:03.138Z,1030.48
2019-04-20T00:19:59.388Z,1030.51
2019-04-20T00:21:03.995Z,1030.47
2019-04-20T00:22:02.962Z,1030.44
2019-04-20T00:22:59.782Z,1030.45
2019-04-20T00:24:01.078Z,1030.42
2019-04-20T00:25:05.154Z,1030.42
2019-04-20T00:26:06.793Z,1030.44
2019-04-20T00:27:20.737Z,1030.45
2019-04-20T00:28:16.078Z,1030.44
2019-04-20T00:29:17.681Z,1030.43
2019-04-20T00:30:15.658Z,1030.41
2019-04-20T00:31:14.547Z,1030.42
2019-04-20T00:32:12.521Z,1030.42
2019-04-20T00:33:07.706Z,1030.38
2019-04-20T00:34:08.021Z,1030.37
2019-04-20T00:35:00.426Z,1030.39
2019-04-20T00:35:58.914Z,1030.38
2019-04-20T00:36:58.151Z,1030.38
2019-04-20T00:37:59.081Z,1030.39
2019-04-20T00:39:03.699Z,1030.39
2019-04-20T00:39:57.883Z,1030.44
2019-04-20T00:41:02.742Z,1030.39
2019-04-20T00:42:03.832Z,1030.41
2019-04-20T00:42:59.801Z,1030.43
2019-04-20T00:44:04.662Z,1030.42
2019-04-20T00:45:07.979Z,1030.39
2019-04-20T00:46:04.857Z,1030.45
2019-04-20T00:47:08.652Z,1030.45
2019-04-20T00:48:04.420Z,1030.41
2019-04-20T00:49:06.986Z,1030.43
2019-04-20T00:50:13.319Z,1030.41
2019-04-20T00:51:17.417Z,1030.39
2019-04-20T00:52:24.218Z,1030.38
2019-04-20T00:53:07.699Z,1030.40
2019-04-20T00:53:58.853Z,1030.35
2019-04-20T00:54:58.098Z,1030.34
2019-04-20T00:55:57.140Z,1030.34
2019-04-20T00:57:10.121Z,1030.38
2019-04-20T00:58:08.393Z,1030.30
2019-04-20T00:59:10.584Z,1030.32
2019-04-20T01:00:17.783Z,1030.35
2019-04-20T01:01:14.243Z,1030.34
2019-04-20T01:02:12.651Z,1030.38
2019-04-20T01:03:09.816Z,1030.40
2019-04-20T01:04:20.214Z,1030.36
2019-04-20T01:05:58.458Z,1030.34
2019-04-20T01:06:53.890Z,1030.34
2019-04-20T01:07:46.396Z,1030.35
2019-04-20T01:08:40.220Z,1030.32
2019-04-20T01:09:39.203Z,1030.34
2019-04-20T01:10:44.780Z,1030.33
2019-04-20T01:11:42.009Z,1030.36
2019-04-20T01:12:42.052Z,1030.37
2019-04-20T01:13:45.928Z,1030.37
2019-04-20T01:14:46.897Z,1030.36
2019-04-20T01:15:48.953Z,1030.35
2019-04-20T01:16:47.401Z,1030.35
2019-04-20T01:17:41.807Z,1030.34
2019-04-20T01:18:38.778Z,1030.36
2019-04-20T01:19:38.952Z,1030.34
2019-04-20T01:20:38.944Z,1030.39
2019-04-20T01:21:44.917Z,1030.38
2019-04-20T01:22:50.723Z,1030.37
2019-04-20T01:23:46.219Z,1030.39
2019-04-20T01:24:43.274Z,1030.38
2019-04-20T01:25:42.259Z,1030.39
2019-04-20T01:26:43.497Z,1030.39
2019-04-20T01:27:51.532Z,1030.39
2019-04-20T01:28:57.675Z,1030.37
2019-04-20T01:29:44.371Z,1030.35
2019-04-20T01:30:44.638Z,1030.37
2019-04-20T01:31:54.560Z,1030.40
2019-04-20T01:32:55.333Z,1030.37
2019-04-20T01:33:50.884Z,1030.37
2019-04-20T01:34:50.350Z,1030.34
2019-04-20T01:35:53.171Z,1030.32
2019-04-20T01:36:55.681Z,1030.35
2019-04-20T01:37:57.490Z,1030.30
2019-04-20T01:38:51.309Z,1030.31
2019-04-20T01:39:45.189Z,1030.30
2019-04-20T01:40:38.360Z,1030.29
2019-04-20T01:41:39.317Z,1030.29
2019-04-20T01:42:38.381Z,1030.30
2019-04-20T01:43:42.109Z,1030.27
2019-04-20T01:44:42.500Z,1030.30
2019-04-20T01:45:41.975Z,1030.27
2019-04-20T01:46:39.184Z,1030.25
2019-04-20T01:47:45.477Z,1030.28
2019-04-20T01:48:41.200Z,1030.27
2019-04-20T01:49:39.014Z,1030.25
2019-04-20T01:50:43.837Z,1030.26
2019-04-20T01:51:49.151Z,1030.27
2019-04-20T01:52:50.827Z,1030.25
2019-04-20T01:53:50.471Z,1030.29
2019-04-20T01:54:58.043Z,1030.25
2019-04-20T01:55:50.386Z,1030.28
2019-04-20T01:56:47.266Z,1030.26
2019-04-20T01:57:56.383Z,1030.26
2019-04-20T01:58:55.314Z,1030.25
2019-04-20T01:59:47.022Z,1030.27
2019-04-20T02:00:40.567Z,1030.28
2019-04-20T02:01:40.690Z,1030.29
2019-04-20T02:02:45.042Z,1030.32
2019-04-20T02:03:43.006Z,1030.31
2019-04-20T02:04:41.986Z,1030.31
2019-04-20T02:05:39.003Z,1030.32
2019-04-20T02:06:43.517Z,1030.34
2019-04-20T02:07:43.873Z,1030.30
2019-04-20T02:08:37.856Z,1030.35
2019-04-20T02:09:43.232Z,1030.35
2019-04-20T02:10:47.080Z,1030.32
2019-04-20T02:11:42.594Z,1030.32
2019-04-20T02:12:40.740Z,1030.31
2019-04-20T02:13:45.642Z,1030.32
2019-04-20T02:14:43.745Z,1030.33
2019-04-20T02:15:42.141Z,1030.38
2019-04-20T02:16:42.705Z,1030.39
2019-04-20T02:17:43.113Z,1030.40
2019-04-20T02:18:51.455Z,1030.37
2019-04-20T02:19:57.201Z,1030.38
2019-04-20T02:20:56.772Z,1030.39
2019-04-20T02:21:51.778Z,1030.42
2019-04-20T02:22:54.169Z,1030.37
2019-04-20T02:23:46.356Z,1030.41
2019-04-20T02:24:37.483Z,1030.42
2019-04-20T02:25:37.675Z,1030.42
2019-04-20T02:26:36.840Z,1030.40
2019-04-20T02:27:46.511Z,1030.43
2019-04-20T02:29:00.478Z,1030.46
2019-04-20T02:30:02.485Z,1030.43
2019-04-20T02:31:15.751Z,1030.41
2019-04-20T02:33:17.038Z,1030.48
2019-04-20T02:34:08.295Z,1030.44
2019-04-20T02:35:07.712Z,1030.46
2019-04-20T02:36:21.121Z,1030.46
2019-04-20T02:37:28.794Z,1030.44
2019-04-20T02:38:15.351Z,1030.46
2019-04-20T02:39:21.132Z,1030.49
2019-04-20T02:40:35.922Z,1030.46
2019-04-20T02:41:10.161Z,1030.48
2019-04-20T02:42:10.146Z,1030.48
2019-04-20T02:43:25.012Z,1030.43
2019-04-20T02:44:17.888Z,1030.42
2019-04-20T02:46:28.481Z,1030.50
2019-04-20T02:50:06.989Z,1030.46
2019-04-20T02:51:09.055Z,1030.45
2019-04-20T02:53:08.203Z,1030.47
2019-04-20T02:54:18.752Z,1030.43
2019-04-20T02:55:10.857Z,1030.41
2019-04-20T02:59:48.809Z,1030.38
2019-04-20T03:01:02.301Z,1030.40
2019-04-20T03:01:55.387Z,1030.38
2019-04-20T03:02:48.867Z,1030.39
2019-04-20T03:03:43.378Z,1030.38
2019-04-20T03:04:45.309Z,1030.39
2019-04-20T03:05:43.202Z,1030.38
2019-04-20T03:06:53.835Z,1030.38
2019-04-20T03:07:57.242Z,1030.47
2019-04-20T03:08:56.411Z,1030.43
2019-04-20T03:09:58.456Z,1030.42
2019-04-20T03:11:06.426Z,1030.43
2019-04-20T03:12:57.045Z,1030.48
2019-04-20T03:13:55.421Z,1030.47
2019-04-20T03:14:56.823Z,1030.46
2019-04-20T03:15:56.493Z,1030.46
2019-04-20T03:16:54.127Z,1030.49
2019-04-20T03:17:59.649Z,1030.49
2019-04-20T03:18:53.517Z,1030.51
2019-04-20T03:19:51.299Z,1030.48
2019-04-20T03:21:04.576Z,1030.53
2019-04-20T03:21:58.572Z,1030.45
2019-04-20T03:23:11.388Z,1030.49
2019-04-20T03:24:09.899Z,1030.51
2019-04-20T03:25:03.853Z,1030.51
2019-04-20T03:25:58.433Z,1030.52
2019-04-20T03:26:55.759Z,1030.46
2019-04-20T03:27:51.743Z,1030.50
2019-04-20T03:28:54.347Z,1030.47
2019-04-20T03:29:56.608Z,1030.48
2019-04-20T03:32:25.271Z,1030.44
2019-04-20T03:33:11.765Z,1030.45
2019-04-20T03:34:22.732Z,1030.44
2019-04-20T03:35:10.188Z,1030.52
2019-04-20T03:36:59.262Z,1030.48
2019-04-20T03:38:01.658Z,1030.47
2019-04-20T03:38:55.017Z,1030.45
2019-04-20T03:39:48.814Z,1030.47
2019-04-20T03:40:48.306Z,1030.45
2019-04-20T03:41:41.395Z,1030.45
2019-04-20T03:42:37.662Z,1030.43
2019-04-20T03:43:34.948Z,1030.43
2019-04-20T03:44:35.928Z,1030.43
2019-04-20T03:45:42.691Z,1030.39
2019-04-20T03:46:44.892Z,1030.38
2019-04-20T03:47:47.824Z,1030.35
2019-04-20T03:48:53.451Z,1030.37
2019-04-20T03:50:16.754Z,1030.34
2019-04-20T03:50:52.220Z,1030.35
2019-04-20T03:51:58.773Z,1030.34
2019-04-20T03:52:57.835Z,1030.37
2019-04-20T03:53:50.313Z,1030.38
2019-04-20T03:54:47.833Z,1030.34
2019-04-20T03:55:51.635Z,1030.37
2019-04-20T03:56:54.301Z,1030.36
2019-04-20T03:58:01.485Z,1030.40
2019-04-20T03:58:53.034Z,1030.40
2019-04-20T04:00:01.814Z,1030.41
2019-04-20T04:00:50.379Z,1030.41
2019-04-20T04:02:17.082Z,1030.41
2019-04-20T04:03:09.357Z,1030.38
2019-04-20T04:03:59.315Z,1030.44
2019-04-20T04:04:56.343Z,1030.42
2019-04-20T04:05:48.125Z,1030.39
2019-04-20T04:06:46.297Z,1030.43
2019-04-20T04:07:41.567Z,1030.39
2019-04-20T04:08:39.533Z,1030.41
2019-04-20T04:09:47.123Z,1030.43
2019-04-20T04:10:58.508Z,1030.41
2019-04-20T04:11:49.063Z,1030.41
2019-04-20T04:12:40.325Z,1030.44
2019-04-20T04:14:17.643Z,1030.42
2019-04-20T04:15:16.866Z,1030.42
2019-04-20T04:16:19.818Z,1030.40
2019-04-20T04:17:20.979Z,1030.42
2019-04-20T04:18:25.539Z,1030.45
2019-04-20T04:19:22.678Z,1030.46
2019-04-20T04:20:19.110Z,1030.42
2019-04-20T04:21:21.743Z,1030.45
2019-04-20T04:22:32.745Z,1030.45
2019-04-20T04:23:33.626Z,1030.47
2019-04-20T04:24:26.006Z,1030.46
2019-04-20T04:25:29.684Z,1030.45
2019-04-20T04:26:32.366Z,1030.51
2019-04-20T04:27:36.948Z,1030.49
2019-04-20T04:28:31.101Z,1030.48
2019-04-20T04:29:40.020Z,1030.52
2019-04-20T04:30:31.043Z,1030.51
2019-04-20T04:31:40.338Z,1030.52
2019-04-20T04:32:58.968Z,1030.56
2019-04-20T04:34:33.723Z,1030.64
2019-04-20T04:35:26.735Z,1030.59
2019-04-20T04:36:30.782Z,1030.59
2019-04-20T04:37:35.486Z,1030.63
2019-04-20T04:38:37.445Z,1030.64
2019-04-20T04:39:35.390Z,1030.62
2019-04-20T04:40:40.772Z,1030.61
2019-04-20T04:41:36.425Z,1030.64
2019-04-20T04:42:37.802Z,1030.62
2019-04-20T04:43:31.583Z,1030.69
2019-04-20T04:44:30.240Z,1030.73
2019-04-20T04:45:17.711Z,1030.74
2019-04-20T04:46:16.443Z,1030.75
2019-04-20T04:47:16.516Z,1030.73
2019-04-20T04:48:24.981Z,1030.78
2019-04-20T04:49:24.218Z,1030.80
2019-04-20T04:50:20.805Z,1030.80
2019-04-20T04:51:20.701Z,1030.78
2019-04-20T04:53:54.295Z,1030.72
2019-04-20T04:54:48.404Z,1030.70
2019-04-20T04:55:47.708Z,1030.67
2019-04-20T04:56:39.878Z,1030.67
2019-04-20T04:57:39.635Z,1030.63
2019-04-20T04:58:40.500Z,1030.69
2019-04-20T04:59:40.374Z,1030.66
2019-04-20T05:00:40.736Z,1030.67
2019-04-20T05:01:40.509Z,1030.70
2019-04-20T05:02:45.464Z,1030.68
2019-04-20T05:04:05.633Z,1030.70
2019-04-20T05:05:05.189Z,1030.69
2019-04-20T05:06:01.404Z,1030.68
2019-04-20T05:06:54.739Z,1030.75
2019-04-20T05:07:51.811Z,1030.80
2019-04-20T05:08:45.386Z,1030.79
2019-04-20T05:09:39.851Z,1030.85
2019-04-20T05:10:39.303Z,1030.87
2019-04-20T05:11:40.556Z,1030.84
2019-04-20T05:12:40.480Z,1030.86
2019-04-20T05:14:32.037Z,1030.88
2019-04-20T05:15:39.400Z,1030.84
2019-04-20T05:16:43.477Z,1030.87
2019-04-20T05:17:48.357Z,1030.91
2019-04-20T05:18:44.978Z,1030.87
2019-04-20T05:19:41.586Z,1030.90
2019-04-20T05:20:43.826Z,1030.91
2019-04-20T05:21:47.647Z,1030.95
2019-04-20T05:22:41.581Z,1030.88
2019-04-20T05:23:35.145Z,1030.92
2019-04-20T05:24:33.761Z,1030.99
2019-04-20T05:25:37.770Z,1030.95
2019-04-20T05:26:42.674Z,1030.99
2019-04-20T05:27:42.047Z,1031.00
2019-04-20T05:28:33.430Z,1031.02
2019-04-20T05:29:26.412Z,1031.06
2019-04-20T05:30:22.392Z,1031.00
2019-04-20T05:31:24.485Z,1031.05
2019-04-20T05:32:32.784Z,1031.07
2019-04-20T05:33:33.069Z,1031.14
2019-04-20T05:34:45.255Z,1031.12
2019-04-20T05:35:44.187Z,1031.14
2019-04-20T05:36:41.288Z,1031.18
2019-04-20T05:37:49.893Z,1031.19
2019-04-20T05:38:46.977Z,1031.18
2019-04-20T05:39:45.773Z,1031.21
2019-04-20T05:40:45.017Z,1031.26
2019-04-20T05:41:39.061Z,1031.25
2019-04-20T05:42:44.455Z,1031.27
2019-04-20T05:43:36.309Z,1031.29
2019-04-20T05:44:44.253Z,1031.29
2019-04-20T05:45:34.056Z,1031.29
2019-04-20T05:46:40.996Z,1031.30
2019-04-20T05:47:38.539Z,1031.31
2019-04-20T05:48:46.284Z,1031.30
2019-04-20T05:49:34.568Z,1031.29
2019-04-20T05:50:37.987Z,1031.32
2019-04-20T05:51:39.511Z,1031.33
2019-04-20T05:53:44.921Z,1031.30
2019-04-20T05:54:45.862Z,1031.34
2019-04-20T05:55:41.650Z,1031.37
2019-04-20T05:57:05.518Z,1031.39
2019-04-20T05:57:47.013Z,1031.39
2019-04-20T05:58:41.956Z,1031.37
2019-04-20T05:59:51.572Z,1031.38
2019-04-20T06:00:47.828Z,1031.38
2019-04-20T06:01:45.268Z,1031.40
2019-04-20T06:02:39.359Z,1031.44
2019-04-20T06:04:55.908Z,1031.47
2019-04-20T06:05:50.765Z,1031.44
2019-04-20T06:07:42.526Z,1031.49
2019-04-20T06:08:45.263Z,1031.47
2019-04-20T06:09:42.114Z,1031.48
2019-04-20T06:11:44.486Z,1031.50
2019-04-20T06:12:40.276Z,1031.48
2019-04-20T06:13:33.631Z,1031.51
2019-04-20T06:14:36.783Z,1031.54
2019-04-20T06:15:42.060Z,1031.57
2019-04-20T06:16:46.757Z,1031.57
2019-04-20T06:17:37.327Z,1031.59
2019-04-20T06:18:34.799Z,1031.58
2019-04-20T06:19:42.265Z,1031.58
2019-04-20T06:20:46.964Z,1031.61
2019-04-20T06:21:44.013Z,1031.63
2019-04-20T06:22:41.465Z,1031.65
2019-04-20T06:23:47.589Z,1031.67
2019-04-20T06:24:45.603Z,1031.66
2019-04-20T06:26:49.041Z,1031.67
2019-04-20T06:27:43.509Z,1031.63
2019-04-20T06:28:37.907Z,1031.61
2019-04-20T06:29:42.712Z,1031.66
2019-04-20T06:30:40.608Z,1031.67
2019-04-20T06:31:40.959Z,1031.69
2019-04-20T06:32:40.397Z,1031.67
2019-04-20T06:33:53.378Z,1031.72
2019-04-20T06:34:37.912Z,1031.70
2019-04-20T06:38:49.737Z,1031.78
2019-04-20T06:40:29.270Z,1031.79
2019-04-20T06:41:45.567Z,1031.81
2019-04-20T06:42:10.870Z,1031.80
2019-04-20T06:43:12.478Z,1031.81
2019-04-20T06:44:21.579Z,1031.86
2019-04-20T06:45:20.233Z,1031.87
2019-04-20T06:46:16.194Z,1031.88
2019-04-20T06:47:16.240Z,1031.97
2019-04-20T06:48:13.571Z,1031.93
2019-04-20T06:49:19.659Z,1031.93
2019-04-20T06:50:06.310Z,1031.95
2019-04-20T06:51:09.273Z,1031.94
2019-04-20T06:52:20.323Z,1031.97
2019-04-20T06:56:52.497Z,1031.90
2019-04-20T06:57:45.307Z,1031.91
2019-04-20T06:58:55.655Z,1031.95
2019-04-20T06:59:52.550Z,1031.93
2019-04-20T07:00:42.137Z,1031.94
2019-04-20T07:02:29.958Z,1031.99
2019-04-20T07:03:37.703Z,1031.95
2019-04-20T07:05:43.917Z,1032.00
2019-04-20T07:06:48.366Z,1031.99
2019-04-20T07:08:27.758Z,1031.95
2019-04-20T07:09:19.995Z,1031.98
2019-04-20T07:10:15.145Z,1032.00
2019-04-20T07:11:13.153Z,1031.97
2019-04-20T08:11:32.062Z,1032.42
2019-04-20T08:13:56.964Z,1032.38
2019-04-20T08:14:56.932Z,1032.41
2019-04-20T08:15:58.737Z,1032.44
2019-04-20T08:17:12.171Z,1032.43
2019-04-20T08:18:07.427Z,1032.43
2019-04-20T08:18:55.391Z,1032.42
2019-04-20T08:19:54.904Z,1032.40
2019-04-20T08:20:58.131Z,1032.38
2019-04-20T08:21:52.036Z,1032.40
2019-04-20T08:24:17.143Z,1032.43
2019-04-20T08:25:08.598Z,1032.43
2019-04-20T08:26:05.702Z,1032.46
2019-04-20T08:27:04.284Z,1032.51
2019-04-20T08:27:59.133Z,1032.51
2019-04-20T08:29:03.343Z,1032.53
2019-04-20T08:30:57.086Z,1032.55
2019-04-20T08:32:03.119Z,1032.52
2019-04-20T08:32:55.581Z,1032.51
2019-04-20T08:34:07.663Z,1032.50
2019-04-20T08:35:05.579Z,1032.52
2019-04-20T08:36:04.423Z,1032.50
2019-04-20T08:37:01.668Z,1032.49
2019-04-20T08:38:32.483Z,1032.41
2019-04-20T08:43:42.341Z,1032.58
2019-04-20T08:45:38.629Z,1032.65
2019-04-20T08:46:32.122Z,1032.69
2019-04-20T08:47:47.351Z,1032.68
2019-04-20T08:49:22.085Z,1032.60
2019-04-20T08:50:57.190Z,1032.56
2019-04-20T08:52:34.334Z,1032.52
2019-04-20T08:55:41.371Z,1032.45
2019-04-20T08:56:36.230Z,1032.42
2019-04-20T08:57:27.048Z,1032.39
2019-04-20T08:58:27.246Z,1032.41
2019-04-20T08:59:26.479Z,1032.41
2019-04-20T09:01:14.075Z,1032.37
2019-04-20T09:03:48.744Z,1032.44
2019-04-20T09:04:43.120Z,1032.46
2019-04-20T09:05:45.827Z,1032.43
2019-04-20T09:06:45.692Z,1032.42
2019-04-20T09:07:45.279Z,1032.42
2019-04-20T09:08:49.292Z,1032.35
2019-04-20T09:09:56.504Z,1032.42
2019-04-20T09:10:48.196Z,1032.37
2019-04-20T09:11:55.598Z,1032.16
2019-04-20T09:12:50.647Z,1031.95
2019-04-20T09:13:41.241Z,1031.79
2019-04-20T09:14:35.198Z,1031.76
2019-04-20T09:15:34.187Z,1031.69
2019-04-20T09:16:43.549Z,1031.67
2019-04-20T09:17:41.134Z,1031.60
2019-04-20T09:18:44.275Z,1031.59
2019-04-20T09:19:41.959Z,1031.51
2019-04-20T09:20:45.830Z,1031.49
2019-04-20T09:21:43.694Z,1031.53
2019-04-20T09:22:44.496Z,1031.46
2019-04-20T09:23:45.079Z,1031.43
2019-04-20T09:25:05.677Z,1031.44
2019-04-20T09:26:04.910Z,1031.37
2019-04-20T09:26:47.491Z,1031.39
2019-04-20T09:27:40.658Z,1031.36
2019-04-20T09:28:40.535Z,1031.33
2019-04-20T09:29:42.741Z,1031.32
2019-04-20T09:30:47.078Z,1031.28
2019-04-20T09:31:47.111Z,1031.23
2019-04-20T09:32:46.421Z,1031.21
2019-04-20T09:33:51.707Z,1031.27
2019-04-20T09:34:54.342Z,1031.25
2019-04-20T09:35:49.550Z,1031.20
2019-04-20T09:36:48.040Z,1031.22
2019-04-20T09:37:47.196Z,1031.20
2019-04-20T09:38:44.036Z,1031.18
2019-04-20T09:39:51.387Z,1031.14
2019-04-20T09:40:54.265Z,1031.13
2019-04-20T09:41:57.801Z,1031.17
2019-04-20T09:42:32.796Z,1031.12
2019-04-20T09:43:32.781Z,1031.12
2019-04-20T09:44:38.643Z,1031.11
2019-04-20T09:45:38.190Z,1031.05
2019-04-20T09:46:39.344Z,1031.04
2019-04-20T09:47:41.181Z,1031.05
2019-04-20T09:48:40.302Z,1031.02
2019-04-20T09:49:42.801Z,1031.03
2019-04-20T09:50:55.413Z,1031.00
2019-04-20T09:51:49.982Z,1031.00
2019-04-20T09:52:55.437Z,1030.94
2019-04-20T09:53:43.193Z,1030.99
2019-04-20T09:54:52.564Z,1030.94
2019-04-20T09:55:52.151Z,1030.97
2019-04-20T09:56:55.367Z,1030.94
2019-04-20T09:57:49.952Z,1031.00
2019-04-20T09:58:55.259Z,1031.02
2019-04-20T09:59:51.302Z,1030.97
2019-04-20T10:00:49.362Z,1031.01
2019-04-20T10:01:40.210Z,1031.03
2019-04-20T10:02:34.986Z,1030.96
2019-04-20T10:04:15.353Z,1030.99
2019-04-20T10:05:15.661Z,1030.99
2019-04-20T10:06:17.954Z,1030.99
2019-04-20T10:07:19.526Z,1030.98
2019-04-20T10:08:15.515Z,1030.89
2019-04-20T10:09:15.747Z,1030.94
2019-04-20T10:10:26.047Z,1030.94
2019-04-20T10:11:14.760Z,1030.91
2019-04-20T10:12:15.690Z,1030.94
2019-04-20T10:13:15.417Z,1030.96
2019-04-20T10:14:14.723Z,1030.93
2019-04-20T10:15:19.489Z,1030.96
2019-04-20T10:16:15.660Z,1030.98
2019-04-20T10:17:15.864Z,1030.98
2019-04-20T10:18:14.658Z,1030.90
2019-04-20T10:19:20.649Z,1031.01
2019-04-20T10:20:22.386Z,1031.00
2019-04-20T10:21:15.779Z,1030.95
2019-04-20T10:22:14.926Z,1030.95
2019-04-20T10:23:14.577Z,1030.93
2019-04-20T10:24:14.700Z,1030.94
2019-04-20T10:25:14.966Z,1030.90
2019-04-20T10:26:14.531Z,1030.93
2019-04-20T10:27:14.653Z,1030.92
2019-04-20T10:28:15.808Z,1030.92
2019-04-20T10:29:15.471Z,1030.91
2019-04-20T10:30:14.657Z,1030.90
2019-04-20T10:31:14.737Z,1030.86
2019-04-20T10:32:16.016Z,1030.82
2019-04-20T10:33:15.484Z,1030.78
2019-04-20T10:34:15.686Z,1030.87
2019-04-20T10:35:16.643Z,1030.76
2019-04-20T10:36:15.309Z,1030.83
2019-04-20T10:37:15.608Z,1030.80
2019-04-20T10:38:15.638Z,1030.80
2019-04-20T10:39:14.346Z,1030.81
2019-04-20T10:40:21.370Z,1030.76
2019-04-20T10:41:28.431Z,1030.82
2019-04-20T10:42:14.363Z,1030.84
2019-04-20T10:43:14.470Z,1030.84
2019-04-20T10:44:14.695Z,1030.80
2019-04-20T10:45:14.973Z,1030.78
2019-04-20T10:46:15.087Z,1030.91
2019-04-20T10:47:14.750Z,1030.87
2019-04-20T10:48:15.153Z,1030.92
2019-04-20T10:49:15.430Z,1030.87
2019-04-20T10:50:14.369Z,1030.88
2019-04-20T10:51:15.526Z,1030.88
2019-04-20T10:52:15.599Z,1030.85
2019-04-20T10:53:14.343Z,1030.89
2019-04-20T10:54:14.340Z,1030.89
2019-04-20T10:55:14.680Z,1030.86
2019-04-20T10:56:15.739Z,1030.86
2019-04-20T10:57:15.523Z,1030.87
2019-04-20T10:58:15.526Z,1030.78
2019-04-20T10:59:14.239Z,1030.87
2019-04-20T11:00:15.480Z,1030.89
2019-04-20T11:01:14.000Z,1030.89
2019-04-20T11:02:14.065Z,1030.82
2019-04-20T11:03:13.971Z,1030.88
2019-04-20T11:04:14.672Z,1030.89
2019-04-20T11:05:14.771Z,1030.87
2019-04-20T11:06:14.491Z,1030.96
2019-04-20T11:07:14.680Z,1030.91
2019-04-20T11:08:14.850Z,1030.93
2019-04-20T11:09:14.331Z,1030.90
2019-04-20T11:10:21.455Z,1030.90
2019-04-20T11:11:21.283Z,1030.86
2019-04-20T11:12:14.583Z,1030.80
2019-04-20T11:13:15.067Z,1030.89
2019-04-20T11:14:22.801Z,1030.90
2019-04-20T11:15:14.619Z,1030.92
2019-04-20T11:16:14.728Z,1030.91
2019-04-20T11:17:14.174Z,1030.91
2019-04-20T11:18:13.751Z,1030.92
2019-04-20T11:19:13.739Z,1030.96
2019-04-20T11:20:15.163Z,1030.96
2019-04-20T11:21:15.317Z,1030.99
2019-04-20T11:22:14.556Z,1030.97
2019-04-20T11:23:14.050Z,1030.93
2019-04-20T11:24:14.317Z,1030.86
2019-04-20T11:25:14.443Z,1030.96
2019-04-20T11:26:14.070Z,1030.89
2019-04-20T11:27:14.273Z,1030.87
2019-04-20T11:28:14.355Z,1030.85
2019-04-20T11:29:13.876Z,1030.77
2019-04-20T11:30:14.079Z,1030.76
2019-04-20T11:31:14.429Z,1030.61
2019-04-20T11:32:14.249Z,1030.69
2019-04-20T11:33:14.026Z,1030.72
2019-04-20T11:34:15.028Z,1030.73
2019-04-20T11:35:22.858Z,1030.68
2019-04-20T11:36:14.865Z,1030.61
2019-04-20T11:37:13.476Z,1030.62
2019-04-20T11:38:15.181Z,1030.68
2019-04-20T11:39:14.728Z,1030.64
2019-04-20T11:40:13.430Z,1030.69
2019-04-20T11:41:18.913Z,1030.63
2019-04-20T11:42:13.977Z,1030.62
2019-04-20T11:43:13.641Z,1030.67
2019-04-20T11:44:13.769Z,1030.57
2019-04-20T11:45:14.939Z,1030.56
2019-04-20T11:46:56.667Z,1030.55
2019-04-20T11:47:55.846Z,1030.59
2019-04-20T11:48:55.704Z,1030.52
2019-04-20T11:49:55.689Z,1030.53
2019-04-20T11:50:55.858Z,1030.57
2019-04-20T11:51:55.661Z,1030.55
2019-04-20T11:52:55.642Z,1030.54
2019-04-20T11:53:56.422Z,1030.54
2019-04-20T11:54:55.610Z,1030.45
2019-04-20T11:55:56.333Z,1030.45
2019-04-20T11:56:55.609Z,1030.50
2019-04-20T11:57:56.202Z,1030.54
2019-04-20T11:58:56.757Z,1030.50
2019-04-20T11:59:55.536Z,1030.53
2019-04-20T12:01:03.185Z,1030.60
2019-04-20T12:02:01.130Z,1030.57
2019-04-20T12:02:58.550Z,1030.61
2019-04-20T12:04:03.781Z,1030.60
2019-04-20T12:05:08.843Z,1030.59
2019-04-20T12:05:59.144Z,1030.61
2019-04-20T12:06:55.424Z,1030.58
2019-04-20T12:07:55.537Z,1030.52
2019-04-20T12:08:56.898Z,1030.64
2019-04-20T12:09:58.509Z,1030.57
2019-04-20T12:10:59.845Z,1030.57
2019-04-20T12:12:08.248Z,1030.58
2019-04-20T12:12:55.784Z,1030.59
2019-04-20T12:13:56.498Z,1030.60
2019-04-20T12:14:56.691Z,1030.64
2019-04-20T12:15:56.023Z,1030.69
2019-04-20T12:16:55.484Z,1030.63
2019-04-20T12:17:55.666Z,1030.63
2019-04-20T12:18:56.626Z,1030.64
2019-04-20T12:19:55.563Z,1030.69
2019-04-20T12:20:56.620Z,1030.72
2019-04-20T12:21:55.822Z,1030.80
2019-04-20T12:22:55.183Z,1030.86
2019-04-20T12:23:56.187Z,1030.84
2019-04-20T12:24:56.222Z,1030.87
2019-04-20T12:25:56.316Z,1030.91
2019-04-20T12:26:56.478Z,1030.95
2019-04-20T12:27:57.397Z,1031.01
2019-04-20T12:28:55.794Z,1031.11
2019-04-20T12:29:55.080Z,1031.13
2019-04-20T12:31:02.745Z,1031.28
2019-04-20T12:31:59.108Z,1031.32
2019-04-20T12:32:58.522Z,1031.30
2019-04-20T12:33:55.037Z,1031.42
2019-04-20T12:34:56.080Z,1031.35
2019-04-20T12:35:56.072Z,1031.40
2019-04-20T12:36:55.365Z,1031.44
2019-04-20T12:37:55.167Z,1031.44
2019-04-20T12:38:55.152Z,1031.46
2019-04-20T12:39:55.362Z,1031.49
2019-04-20T12:40:55.707Z,1031.46
2019-04-20T12:42:00.057Z,1031.54
2019-04-20T12:42:55.079Z,1031.51
2019-04-20T12:43:56.117Z,1031.49
2019-04-20T12:44:55.640Z,1031.53
2019-04-20T12:45:55.883Z,1031.53
2019-04-20T12:46:55.908Z,1031.68
2019-04-20T12:47:55.540Z,1031.52
2019-04-20T12:48:55.705Z,1031.30
2019-04-20T12:49:55.809Z,1031.49
2019-04-20T12:50:55.427Z,1031.52
2019-04-20T12:51:59.449Z,1031.19
2019-04-20T12:52:54.952Z,1031.06
2019-04-20T12:53:54.734Z,1031.08
2019-04-20T12:54:54.721Z,1031.11
2019-04-20T12:55:54.830Z,1031.20
2019-04-20T12:56:54.691Z,1031.21
2019-04-20T12:57:54.679Z,1031.31
2019-04-20T12:58:55.796Z,1031.81
2019-04-20T12:59:54.651Z,1031.93
2019-04-20T13:00:54.638Z,1031.56
2019-04-20T13:01:55.418Z,1031.25
2019-04-20T13:02:55.674Z,1031.03
2019-04-20T13:03:55.306Z,1030.99
2019-04-20T13:04:55.343Z,1030.99
2019-04-20T13:05:54.564Z,1030.92
2019-04-20T13:06:55.360Z,1030.91
2019-04-20T13:07:58.974Z,1030.84
2019-04-20T13:08:58.433Z,1030.78
2019-04-20T13:09:54.853Z,1030.71
2019-04-20T13:10:54.878Z,1030.68
2019-04-20T13:11:59.068Z,1030.69
2019-04-20T13:12:54.505Z,1030.64
2019-04-20T13:13:54.578Z,1030.65
2019-04-20T13:14:54.442Z,1030.78
2019-04-20T13:15:54.460Z,1030.89
2019-04-20T13:16:55.180Z,1030.77
2019-04-20T13:17:54.413Z,1030.39
2019-04-20T13:18:55.248Z,1029.78
2019-04-20T13:19:55.310Z,1029.86
2019-04-20T13:20:58.004Z,1030.05
2019-04-20T13:21:54.799Z,1030.34
2019-04-20T13:22:55.031Z,1030.53
2019-04-20T13:23:56.233Z,1030.61
2019-04-20T13:24:54.965Z,1030.63
2019-04-20T13:25:57.183Z,1030.68
2019-04-20T13:26:55.202Z,1030.60
2019-04-20T13:27:54.770Z,1030.69
2019-04-20T13:28:55.110Z,1030.70
2019-04-20T13:29:55.835Z,1030.88
2019-04-20T13:30:55.380Z,1031.10
2019-04-20T13:32:38.069Z,1032.04
2019-04-20T13:33:36.906Z,1032.81
2019-04-20T13:34:36.543Z,1032.82
2019-04-20T13:35:36.728Z,1032.73
2019-04-20T13:36:37.980Z,1032.79
2019-04-20T13:37:38.773Z,1032.67
2019-04-20T13:38:36.682Z,1032.41
2019-04-20T13:41:01.991Z,1032.89
2019-04-20T13:42:11.429Z,1032.78
2019-04-20T13:43:01.698Z,1032.67
2019-04-20T13:44:03.118Z,1032.60
2019-04-20T13:45:01.201Z,1032.75
2019-04-20T13:46:01.186Z,1032.74
2019-04-20T13:47:01.166Z,1032.84
2019-04-20T13:48:01.214Z,1032.75
2019-04-20T13:49:01.632Z,1032.77
2019-04-20T13:50:01.172Z,1032.82
2019-04-20T13:51:02.368Z,1032.57
2019-04-20T13:52:02.295Z,1032.39
2019-04-20T13:53:01.233Z,1032.44
2019-04-20T13:55:27.309Z,1031.12
2019-04-20T13:56:26.039Z,1030.10